Current | Forecast
Updated: 7:30 AM +07 on May 28, 2017
Observed at Krasnoyarsk, Russia
Temperature 46°F
Humidity 62%
Dew Point 34°F
Wind North at 0 mph
Pressure 30.06 in (Steady)
Conditions Clear
Visibility -
UV N/A
Clouds
Yesterday's Maximum 59°F
Yesterday's Minimum 37°F approx.
Yesterday's Heating Degree Days 17 approx.
Sunrise4:07 AM +07
Sunset9:19 PM +07
Moon Rise6:47 AM +07
Moon Set11:41 PM +07
Moon PhaseMoon Phase
Waxing Crescent
Raw METARMETAR UNKL 280030Z 00000MPS CAVOK 08/01 Q1018 R29/CLRD65 NOSIG RMK QFE738


Monday
. High: 41° F.
Tuesday
. High: 44° F.
Wednesday
. High: 44° F.
Thursday
. High: 50° F.
Friday
. High: 57° F.
Saturday
. High: 64° F.
Sunday
. High: 68° F.
Monday
. High: 73° F.

Units: English | Metric

Find the Weather for any City, State or Zipcode, or Country:

U.S. State List | Severe Weather | Tropical Storms | Ski Conditions
United States | Canada | Central America | South America | Asia | Europe | Australia | Africa | Islands

Weather Underground

© Copyright 2017
The Weather Company, LLC